createdAt,value
2023-03-28T00:01:14.847Z,100974.66
2023-03-28T00:03:43.464Z,100971.31
2023-03-28T00:06:16.690Z,100976.47
2023-03-28T00:08:48.339Z,100978.00
2023-03-28T00:11:20.935Z,100978.91
2023-03-28T00:13:53.600Z,100980.44
2023-03-28T00:16:22.097Z,100988.16
2023-03-28T00:18:51.106Z,100986.50
2023-03-28T00:21:27.633Z,100992.44
2023-03-28T00:24:01.832Z,100986.28
2023-03-28T00:26:35.696Z,100993.88
2023-03-28T00:29:09.151Z,100993.72
2023-03-28T00:31:40.121Z,100987.59
2023-03-28T00:34:09.627Z,100985.81
2023-03-28T00:36:39.121Z,100995.19
2023-03-28T00:39:10.211Z,100995.19
2023-03-28T00:41:43.593Z,100988.03
2023-03-28T00:44:48.931Z,100996.25
2023-03-28T00:47:37.867Z,100994.22
2023-03-28T00:50:11.973Z,100991.31
2023-03-28T00:52:44.581Z,100992.84
2023-03-28T00:55:18.586Z,100988.47
2023-03-28T00:57:51.167Z,100990.06
2023-03-28T01:00:21.103Z,100988.25
2023-03-28T01:02:56.508Z,100997.78
2023-03-28T01:05:28.856Z,100997.78
2023-03-28T01:08:05.685Z,100997.91
2023-03-28T01:10:34.712Z,100996.75
2023-03-28T01:13:06.137Z,100993.28
2023-03-28T01:15:34.772Z,100987.22
2023-03-28T01:18:11.464Z,100997.50
2023-03-28T01:21:24.542Z,100993.19
2023-03-28T01:24:38.211Z,100987.00
2023-03-28T01:27:16.192Z,100993.03
2023-03-28T01:30:31.994Z,100995.50
2023-03-28T01:34:23.440Z,100994.22
2023-03-28T01:37:34.894Z,100988.88
2023-03-28T01:40:26.240Z,101000.91
2023-03-28T01:43:26.080Z,100994.88
2023-03-28T01:46:02.080Z,100998.34
2023-03-28T01:48:48.416Z,101000.91
2023-03-28T01:51:26.140Z,101002.72
2023-03-28T01:54:07.817Z,101001.72
2023-03-28T01:56:41.510Z,100996.59
2023-03-28T01:59:18.736Z,100996.44
2023-03-28T02:02:11.324Z,100990.28
2023-03-28T02:04:42.047Z,100990.94
2023-03-28T02:07:13.131Z,100987.47
2023-03-28T02:10:06.783Z,100982.22
2023-03-28T02:13:01.914Z,100977.72
2023-03-28T02:15:47.778Z,100979.38
2023-03-28T02:18:32.990Z,100985.19
2023-03-28T02:21:29.867Z,100973.00
2023-03-28T02:24:09.816Z,100979.78
2023-03-28T02:26:55.051Z,100982.28
2023-03-28T02:29:40.392Z,100979.69
2023-03-28T02:32:15.707Z,100977.00
2023-03-28T02:34:48.759Z,100981.25
2023-03-28T02:37:32.089Z,100976.09
2023-03-28T02:40:17.267Z,100970.69
2023-03-28T02:43:20.466Z,100974.94
2023-03-28T02:46:17.498Z,100975.56
2023-03-28T02:49:18.835Z,100967.75
2023-03-28T02:51:53.962Z,100971.13
2023-03-28T02:54:35.005Z,100960.72
2023-03-28T02:57:34.481Z,100973.28
2023-03-28T03:00:12.612Z,100968.16
2023-03-28T03:02:44.953Z,100966.38
2023-03-28T03:05:14.001Z,100954.19
2023-03-28T03:07:43.590Z,100961.25
2023-03-28T03:10:14.147Z,100963.69
2023-03-28T03:12:46.705Z,100960.97
2023-03-28T03:15:17.606Z,100961.88
2023-03-28T03:17:52.330Z,100963.41
2023-03-28T03:20:27.307Z,100958.19
2023-03-28T03:22:56.866Z,100966.78
2023-03-28T03:25:27.013Z,100967.56
2023-03-28T03:28:16.458Z,100970.78
2023-03-28T03:30:46.629Z,100961.41
2023-03-28T03:33:41.613Z,100967.19
2023-03-28T03:36:17.595Z,100969.78
2023-03-28T03:38:47.578Z,100972.34
2023-03-28T03:41:21.657Z,100972.34
2023-03-28T03:43:50.751Z,100967.06
2023-03-28T03:46:21.644Z,100966.16
2023-03-28T03:48:51.713Z,100967.72
2023-03-28T03:51:20.409Z,100965.13
2023-03-28T03:53:51.833Z,100963.34
2023-03-28T03:56:24.292Z,100970.94
2023-03-28T03:58:54.873Z,100969.00
2023-03-28T04:01:30.568Z,100969.00
2023-03-28T04:04:16.533Z,100978.25
2023-03-28T04:07:17.775Z,100982.38
2023-03-28T04:09:48.992Z,100989.97
2023-03-28T04:12:18.475Z,100993.28
2023-03-28T04:14:49.871Z,100997.44
2023-03-28T04:17:41.233Z,100993.84
2023-03-28T04:20:15.240Z,100996.25
2023-03-28T04:23:08.465Z,100998.72
2023-03-28T04:25:41.450Z,101000.41
2023-03-28T04:28:25.651Z,101003.88
2023-03-28T04:31:01.358Z,101016.56
2023-03-28T04:33:53.882Z,101015.53
2023-03-28T04:36:25.832Z,101011.31
2023-03-28T04:39:04.208Z,101026.56
2023-03-28T04:41:48.162Z,101017.88
2023-03-28T04:44:22.972Z,101018.50
2023-03-28T04:46:59.704Z,101029.81
2023-03-28T04:49:29.981Z,101018.50
2023-03-28T04:51:58.753Z,101023.50
2023-03-28T04:54:27.177Z,101025.31
2023-03-28T04:57:05.979Z,101026.88
2023-03-28T04:59:42.063Z,101028.53
2023-03-28T05:02:12.517Z,101032.75
2023-03-28T05:04:47.317Z,101035.31
2023-03-28T05:07:16.025Z,101031.72
2023-03-28T05:09:44.558Z,101041.22
2023-03-28T05:12:13.172Z,101050.72
2023-03-28T05:14:58.668Z,101046.22
2023-03-28T05:17:27.111Z,101047.00
2023-03-28T05:20:08.290Z,101045.22
2023-03-28T05:22:46.180Z,101049.47
2023-03-28T05:25:15.029Z,101051.88
2023-03-28T05:27:43.380Z,101053.56
2023-03-28T05:30:13.675Z,101049.19
2023-03-28T05:32:42.924Z,101049.94
2023-03-28T05:35:16.741Z,101051.75
2023-03-28T05:37:47.115Z,101059.22
2023-03-28T05:40:16.814Z,101054.06
2023-03-28T05:42:45.703Z,101049.84
2023-03-28T05:45:17.660Z,101062.53
2023-03-28T05:48:08.189Z,101061.63
2023-03-28T05:50:39.496Z,101059.06
2023-03-28T05:53:08.300Z,101050.47
2023-03-28T05:55:36.832Z,101057.41
2023-03-28T05:58:06.375Z,101059.97
2023-03-28T06:00:42.065Z,101066.16
2023-03-28T06:03:16.229Z,101060.88
2023-03-28T06:05:48.023Z,101057.56
2023-03-28T06:08:22.435Z,101057.41
2023-03-28T06:10:51.150Z,101064.34
2023-03-28T06:13:23.730Z,101064.34
2023-03-28T06:15:53.157Z,101061.88
2023-03-28T06:18:30.885Z,101069.47
2023-03-28T06:21:01.166Z,101073.03
2023-03-28T06:23:30.226Z,101078.19
2023-03-28T06:25:58.687Z,101073.03
2023-03-28T06:28:33.472Z,101069.72
2023-03-28T06:31:20.178Z,101077.41
2023-03-28T06:33:49.921Z,101080.88
2023-03-28T06:36:22.856Z,101069.84
2023-03-28T06:38:53.526Z,101079.22
2023-03-28T06:41:24.088Z,101079.34
2023-03-28T06:43:53.256Z,101074.31
2023-03-28T06:46:50.461Z,101081.16
2023-03-28T06:49:19.515Z,101079.47
2023-03-28T06:52:08.023Z,101085.63
2023-03-28T06:54:37.673Z,101088.19
2023-03-28T06:57:06.376Z,101082.28
2023-03-28T06:59:37.776Z,101089.25
2023-03-28T07:02:11.269Z,101097.94
2023-03-28T07:04:40.945Z,101095.38
2023-03-28T07:07:11.449Z,101100.78
2023-03-28T07:09:40.006Z,101098.22
2023-03-28T07:12:12.501Z,101090.38
2023-03-28T07:14:44.578Z,101106.91
2023-03-28T07:17:13.150Z,101106.16
2023-03-28T07:19:41.839Z,101103.72
2023-03-28T07:22:11.958Z,101100.53
2023-03-28T07:24:40.629Z,101096.38
2023-03-28T07:27:16.216Z,101102.56
2023-03-28T07:29:47.236Z,101102.81
2023-03-28T07:32:16.741Z,101115.91
2023-03-28T07:34:47.354Z,101107.44
2023-03-28T07:37:27.116Z,101111.00
2023-03-28T07:40:11.071Z,101110.25
2023-03-28T07:42:41.728Z,101113.72
2023-03-28T07:45:12.281Z,101114.84
2023-03-28T07:47:41.766Z,101110.75
2023-03-28T07:50:11.097Z,101112.56
2023-03-28T07:52:45.511Z,101100.75
2023-03-28T07:55:15.567Z,101112.16
2023-03-28T07:57:48.589Z,101111.50
2023-03-28T08:00:27.637Z,101112.31
2023-03-28T08:03:16.003Z,101104.31
2023-03-28T08:05:51.436Z,101115.75
2023-03-28T08:08:23.418Z,101116.00
2023-03-28T08:11:24.315Z,101118.44
2023-03-28T08:13:53.027Z,101115.09
2023-03-28T08:16:25.208Z,101117.66
2023-03-28T08:19:09.217Z,101123.19
2023-03-28T08:21:46.236Z,101115.97
2023-03-28T08:24:25.414Z,101114.84
2023-03-28T08:27:07.570Z,101117.16
2023-03-28T08:29:36.442Z,101113.41
2023-03-28T08:32:07.447Z,101115.66
2023-03-28T08:34:37.610Z,101111.94
2023-03-28T08:37:12.988Z,101106.50
2023-03-28T08:39:45.320Z,101123.47
2023-03-28T08:42:32.387Z,101108.53
2023-03-28T08:45:19.770Z,101112.34
2023-03-28T08:48:01.880Z,101115.16
2023-03-28T08:50:34.513Z,101114.59
2023-03-28T08:53:03.954Z,101108.81
2023-03-28T08:55:38.514Z,101107.63
2023-03-28T08:58:10.681Z,101103.97
2023-03-28T09:00:40.296Z,101110.50
2023-03-28T09:03:15.630Z,101114.44
2023-03-28T09:05:49.851Z,101122.66
2023-03-28T09:08:53.251Z,101114.38
2023-03-28T09:11:40.547Z,101114.63
2023-03-28T09:14:30.299Z,101115.75
2023-03-28T09:17:09.658Z,101116.22
2023-03-28T09:19:58.833Z,101111.56
2023-03-28T09:23:24.529Z,101108.69
2023-03-28T09:26:17.063Z,101096.38
2023-03-28T09:28:58.520Z,101104.84
2023-03-28T09:31:33.165Z,101105.31
2023-03-28T09:34:04.905Z,101094.59
2023-03-28T09:36:49.654Z,101099.28
2023-03-28T09:39:33.961Z,101104.78
2023-03-28T09:42:08.268Z,101111.06
2023-03-28T09:45:10.335Z,101098.16
2023-03-28T09:47:59.577Z,101092.03
2023-03-28T09:50:31.635Z,101097.41
2023-03-28T09:53:01.593Z,101090.56
2023-03-28T09:55:32.762Z,101089.78
2023-03-28T09:58:07.463Z,101079.50
2023-03-28T10:00:57.176Z,101091.47
2023-03-28T10:03:56.162Z,101083.88
2023-03-28T10:06:45.853Z,101093.47
2023-03-28T10:09:20.332Z,101098.88
2023-03-28T10:12:10.145Z,101086.78
2023-03-28T10:14:42.590Z,101082.75
2023-03-28T10:17:31.170Z,101078.81
2023-03-28T10:20:04.336Z,101078.16
2023-03-28T10:22:40.988Z,101066.06
2023-03-28T10:25:19.045Z,101076.59
2023-03-28T10:27:50.297Z,101073.34
2023-03-28T10:30:26.246Z,101065.84
2023-03-28T10:33:23.724Z,101064.72
2023-03-28T10:36:31.659Z,101060.69
2023-03-28T10:39:22.949Z,101052.50
2023-03-28T10:42:11.759Z,101048.47
2023-03-28T10:45:01.271Z,101049.69
2023-03-28T10:47:33.125Z,101049.03
2023-03-28T10:50:25.508Z,101045.88
2023-03-28T10:53:10.707Z,101039.81
2023-03-28T10:55:51.837Z,101044.31
2023-03-28T10:58:54.745Z,101039.34
2023-03-28T11:01:37.148Z,101037.22
2023-03-28T11:04:31.301Z,101028.13
2023-03-28T11:07:09.892Z,101025.88
2023-03-28T11:10:12.811Z,101016.88
2023-03-28T11:13:15.877Z,101003.69
2023-03-28T11:15:58.168Z,101002.53
2023-03-28T11:18:53.004Z,101003.84
2023-03-28T11:21:34.202Z,100999.03
2023-03-28T11:24:21.419Z,100994.16
2023-03-28T11:27:15.658Z,100992.78
2023-03-28T11:30:17.992Z,100989.63
2023-03-28T11:33:15.701Z,100990.84
2023-03-28T11:35:48.748Z,100980.94
2023-03-28T11:38:22.906Z,100974.38
2023-03-28T11:40:59.521Z,100977.38
2023-03-28T11:43:52.816Z,100969.94
2023-03-28T11:46:28.904Z,100978.09
2023-03-28T11:49:13.561Z,100959.53
2023-03-28T11:51:52.913Z,100942.47
2023-03-28T11:54:30.266Z,100940.19
2023-03-28T11:57:05.897Z,100925.59
2023-03-28T11:59:54.306Z,100924.91
2023-03-28T12:02:42.615Z,100922.41
2023-03-28T12:05:23.403Z,100914.75
2023-03-28T12:08:04.345Z,100910.91
2023-03-28T12:10:36.342Z,100907.72
2023-03-28T12:13:17.564Z,100907.31
2023-03-28T12:16:03.987Z,100898.97
2023-03-28T12:18:41.601Z,100888.94
2023-03-28T12:21:24.799Z,100883.06
2023-03-28T12:24:06.098Z,100879.03
2023-03-28T12:27:01.318Z,100886.88
2023-03-28T12:29:39.901Z,100867.88
2023-03-28T12:32:34.403Z,100866.41
2023-03-28T12:35:16.475Z,100876.13
2023-03-28T12:38:21.870Z,100868.50
2023-03-28T12:41:02.041Z,100866.97
2023-03-28T12:43:43.079Z,100867.97
2023-03-28T12:46:18.649Z,100864.88
2023-03-28T12:48:54.053Z,100854.66
2023-03-28T12:51:33.228Z,100852.13
2023-03-28T12:54:09.682Z,100851.56
2023-03-28T12:56:39.117Z,100850.72
2023-03-28T12:59:44.156Z,100844.88
2023-03-28T13:02:33.405Z,100838.19
2023-03-28T13:05:16.216Z,100846.22
2023-03-28T13:08:03.823Z,100836.97
2023-03-28T13:10:42.651Z,100837.25
2023-03-28T13:13:30.091Z,100831.38
2023-03-28T13:16:07.419Z,100827.28
2023-03-28T13:18:47.172Z,100826.66
2023-03-28T13:21:43.346Z,100812.31
2023-03-28T13:24:31.275Z,100796.19
2023-03-28T13:27:01.682Z,100793.78
2023-03-28T13:29:47.401Z,100789.75
2023-03-28T13:32:18.013Z,100781.41
2023-03-28T13:34:56.700Z,100780.94
2023-03-28T13:37:27.077Z,100778.56
2023-03-28T13:40:01.146Z,100778.72
2023-03-28T13:42:32.817Z,100772.06
2023-03-28T13:45:06.673Z,100771.31
2023-03-28T13:47:39.857Z,100766.94
2023-03-28T13:50:22.268Z,100752.16
2023-03-28T13:52:50.637Z,100738.22
2023-03-28T13:55:23.783Z,100741.59
2023-03-28T13:57:53.173Z,100737.31
2023-03-28T14:00:25.878Z,100732.34
2023-03-28T14:02:56.294Z,100721.19
2023-03-28T14:05:29.111Z,100732.50
2023-03-28T14:08:21.449Z,100723.94
2023-03-28T14:10:52.212Z,100725.63
2023-03-28T14:13:26.072Z,100720.34
2023-03-28T14:15:56.545Z,100716.16
2023-03-28T14:18:33.886Z,100719.66
2023-03-28T14:21:06.678Z,100718.91
2023-03-28T14:23:38.537Z,100717.34
2023-03-28T14:26:17.368Z,100707.19
2023-03-28T14:28:48.262Z,100702.88
2023-03-28T14:31:34.638Z,100698.78
2023-03-28T14:34:17.409Z,100685.22
2023-03-28T14:37:01.216Z,100697.63
2023-03-28T14:39:32.303Z,100689.13
2023-03-28T14:42:05.627Z,100669.56
2023-03-28T14:44:41.104Z,100670.53
2023-03-28T14:47:14.751Z,100664.75
2023-03-28T14:49:43.299Z,100656.97
2023-03-28T14:52:16.365Z,100652.75
2023-03-28T14:54:48.273Z,100662.50
2023-03-28T14:57:18.669Z,100655.69
2023-03-28T14:59:49.766Z,100651.72
2023-03-28T15:02:24.356Z,100644.94
2023-03-28T15:04:53.991Z,100643.31
2023-03-28T15:07:28.130Z,100631.34
2023-03-28T15:10:10.886Z,100623.66
2023-03-28T15:12:47.585Z,100621.16
2023-03-28T15:15:23.226Z,100610.06
2023-03-28T15:17:53.874Z,100604.88
2023-03-28T15:20:27.859Z,100599.59
2023-03-28T15:23:00.784Z,100601.34
2023-03-28T15:25:31.220Z,100594.38
2023-03-28T15:28:02.817Z,100579.63
2023-03-28T15:30:36.157Z,100575.25
2023-03-28T15:33:07.004Z,100580.28
2023-03-28T15:35:40.873Z,100568.13
2023-03-28T15:38:19.663Z,100568.84
2023-03-28T15:40:50.113Z,100561.88
2023-03-28T15:43:39.659Z,100553.16
2023-03-28T15:46:14.158Z,100558.25
2023-03-28T15:48:44.062Z,100561.56
2023-03-28T15:51:17.142Z,100549.25
2023-03-28T15:53:50.392Z,100556.06
2023-03-28T15:56:26.883Z,100546.44
2023-03-28T15:59:00.986Z,100545.38
2023-03-28T16:01:32.728Z,100539.13
2023-03-28T16:04:25.536Z,100538.97
2023-03-28T16:07:09.289Z,100537.00
2023-03-28T16:09:42.986Z,100535.16
2023-03-28T16:12:15.620Z,100535.25
2023-03-28T16:14:48.843Z,100524.72
2023-03-28T16:17:37.488Z,100529.00
2023-03-28T16:20:17.481Z,100523.81
2023-03-28T16:22:47.657Z,100518.50
2023-03-28T16:25:17.990Z,100513.31
2023-03-28T16:27:46.488Z,100519.28
2023-03-28T16:30:20.932Z,100505.56
2023-03-28T16:32:49.397Z,100507.25
2023-03-28T16:35:18.032Z,100508.06
2023-03-28T16:37:47.389Z,100508.84
2023-03-28T16:40:18.201Z,100494.22
2023-03-28T16:42:46.708Z,100500.28
2023-03-28T16:45:15.198Z,100497.59
2023-03-28T16:47:43.752Z,100501.09
2023-03-28T16:50:13.088Z,100489.03
2023-03-28T16:52:42.113Z,100482.16
2023-03-28T16:55:13.363Z,100490.75
2023-03-28T16:57:43.584Z,100489.94
2023-03-28T17:00:17.836Z,100486.44
2023-03-28T17:02:48.522Z,100489.03
2023-03-28T17:05:18.006Z,100491.53
2023-03-28T17:07:46.722Z,100482.81
2023-03-28T17:10:15.122Z,100486.22
2023-03-28T17:12:45.676Z,100480.13
2023-03-28T17:15:14.890Z,100480.75
2023-03-28T17:17:43.759Z,100478.97
2023-03-28T17:20:13.070Z,100484.06
2023-03-28T17:22:42.669Z,100474.44
2023-03-28T17:25:11.361Z,100477.94
2023-03-28T17:27:40.810Z,100473.47
2023-03-28T17:30:13.221Z,100476.16
2023-03-28T17:32:42.060Z,100475.34
2023-03-28T17:35:12.192Z,100474.50
2023-03-28T17:37:41.287Z,100471.91
2023-03-28T17:40:11.666Z,100466.75
2023-03-28T17:42:40.290Z,100465.00
2023-03-28T17:45:11.294Z,100459.81
2023-03-28T17:47:40.476Z,100458.03
2023-03-28T17:50:10.450Z,100464.81
2023-03-28T17:52:39.590Z,100457.84
2023-03-28T17:55:08.983Z,100460.44
2023-03-28T17:57:37.744Z,100459.47
2023-03-28T18:00:08.479Z,100463.75
2023-03-28T18:02:46.070Z,100457.59
2023-03-28T18:05:34.720Z,100461.00
2023-03-28T18:08:03.417Z,100460.09
2023-03-28T18:10:32.107Z,100454.03
2023-03-28T18:13:00.750Z,100447.00
2023-03-28T18:15:29.193Z,100445.13
2023-03-28T18:18:01.832Z,100446.91
2023-03-28T18:20:30.323Z,100446.81
2023-03-28T18:22:59.161Z,100448.47
2023-03-28T18:25:29.749Z,100436.31
2023-03-28T18:27:59.605Z,100434.53
2023-03-28T18:30:28.732Z,100437.94
2023-03-28T18:32:58.859Z,100435.44
2023-03-28T18:35:28.055Z,100429.22
2023-03-28T18:38:15.573Z,100435.00
2023-03-28T18:41:04.594Z,100428.88
2023-03-28T18:43:53.424Z,100431.28
2023-03-28T18:46:42.587Z,100421.75
2023-03-28T18:49:33.642Z,100416.56
2023-03-28T18:52:22.586Z,100424.97
2023-03-28T18:55:13.550Z,100419.00
2023-03-28T18:58:04.537Z,100416.22
2023-03-28T19:00:33.076Z,100422.28
2023-03-28T19:03:01.999Z,100416.22
2023-03-28T19:05:35.072Z,100414.53
2023-03-28T19:08:04.839Z,100411.06
2023-03-28T19:10:33.519Z,100408.47
2023-03-28T19:13:08.179Z,100400.72
2023-03-28T19:15:36.972Z,100398.06
2023-03-28T19:18:07.055Z,100403.25
2023-03-28T19:20:38.110Z,100405.88
2023-03-28T19:23:07.725Z,100403.31
2023-03-28T19:25:36.178Z,100415.44
2023-03-28T19:28:04.706Z,100405.88
2023-03-28T19:30:33.350Z,100417.97
2023-03-28T19:33:02.591Z,100421.41
2023-03-28T19:35:32.231Z,100426.53
2023-03-28T19:38:02.803Z,100434.03
2023-03-28T19:40:31.260Z,100436.34
2023-03-28T19:42:59.845Z,100443.03
2023-03-28T19:45:29.865Z,100439.47
2023-03-28T19:47:58.459Z,100450.56
2023-03-28T19:50:27.301Z,100437.38
2023-03-28T19:52:55.753Z,100440.66
2023-03-28T19:55:26.258Z,100437.03
2023-03-28T19:57:56.972Z,100443.69
2023-03-28T20:00:25.930Z,100436.69
2023-03-28T20:02:54.850Z,100440.06
2023-03-28T20:05:23.612Z,100447.72
2023-03-28T20:07:52.060Z,100442.41
2023-03-28T20:10:20.753Z,100440.53
2023-03-28T20:12:50.633Z,100447.28
2023-03-28T20:15:19.192Z,100439.38
2023-03-28T20:17:48.589Z,100442.75
2023-03-28T20:20:19.651Z,100435.00
2023-03-28T20:22:48.475Z,100432.41
2023-03-28T20:25:17.183Z,100421.19
2023-03-28T20:27:47.561Z,100425.47
2023-03-28T20:30:17.647Z,100422.81
2023-03-28T20:32:49.389Z,100426.19
2023-03-28T20:35:18.771Z,100423.59
2023-03-28T20:37:47.251Z,100435.63
2023-03-28T20:40:15.648Z,100422.63
2023-03-28T20:42:44.067Z,100425.94
2023-03-28T20:45:22.187Z,100430.13
2023-03-28T20:47:58.565Z,100417.88
2023-03-28T20:50:34.132Z,100419.50
2023-03-28T20:53:03.260Z,100414.31
2023-03-28T20:55:33.136Z,100418.59
2023-03-28T20:58:03.930Z,100413.34
2023-03-28T21:00:33.855Z,100416.72
2023-03-28T21:03:04.069Z,100421.00
2023-03-28T21:05:33.184Z,100421.00
2023-03-28T21:08:04.401Z,100414.78
2023-03-28T21:10:34.298Z,100416.38
2023-03-28T21:13:02.644Z,100418.06
2023-03-28T21:15:31.266Z,100411.94
2023-03-28T21:18:00.190Z,100417.91
2023-03-28T21:20:30.414Z,100400.50
2023-03-28T21:23:00.153Z,100396.97
2023-03-28T21:25:28.971Z,100398.66
2023-03-28T21:27:57.462Z,100394.28
2023-03-28T21:30:25.813Z,100395.88
2023-03-28T21:32:54.423Z,100398.47
2023-03-28T21:35:23.114Z,100388.97
2023-03-28T21:37:52.963Z,100383.81
2023-03-28T21:40:21.344Z,100373.28
2023-03-28T21:42:50.413Z,100378.28
2023-03-28T21:45:19.108Z,100371.34
2023-03-28T21:47:47.708Z,100374.72
2023-03-28T21:50:16.629Z,100365.19
2023-03-28T21:52:45.075Z,100358.31
2023-03-28T21:55:15.030Z,100351.38
2023-03-28T21:57:43.466Z,100362.59
2023-03-28T22:00:16.534Z,100351.38
2023-03-28T22:02:45.820Z,100359.06
2023-03-28T22:05:26.631Z,100353.91
2023-03-28T22:07:57.057Z,100348.63
2023-03-28T22:10:29.385Z,100350.31
2023-03-28T22:12:59.267Z,100353.69
2023-03-28T22:15:28.230Z,100339.91
2023-03-28T22:17:58.224Z,100334.63
2023-03-28T22:20:28.684Z,100329.47
2023-03-28T22:23:00.538Z,100328.41
2023-03-28T22:25:34.586Z,100321.47
2023-03-28T22:28:05.203Z,100324.84
2023-03-28T22:30:34.520Z,100322.09
2023-03-28T22:33:03.865Z,100326.38
2023-03-28T22:35:33.707Z,100320.22
2023-03-28T22:38:02.375Z,100318.47
2023-03-28T22:40:32.773Z,100309.84
2023-03-28T22:43:01.410Z,100313.22
2023-03-28T22:45:30.048Z,100303.69
2023-03-28T22:48:00.519Z,100297.72
2023-03-28T22:50:29.727Z,100302.00
2023-03-28T22:52:58.063Z,100300.22
2023-03-28T22:55:26.467Z,100295.84
2023-03-28T22:57:56.289Z,100294.88
2023-03-28T23:00:24.967Z,100287.16
2023-03-28T23:02:55.156Z,100291.41
2023-03-28T23:05:23.813Z,100284.47
2023-03-28T23:07:52.870Z,100283.56
2023-03-28T23:10:21.646Z,100290.44
2023-03-28T23:12:50.600Z,100279.22
2023-03-28T23:15:20.647Z,100272.34
2023-03-28T23:17:49.361Z,100271.56
2023-03-28T23:20:19.166Z,100263.72
2023-03-28T23:22:49.449Z,100263.63
2023-03-28T23:25:19.658Z,100262.75
2023-03-28T23:27:48.051Z,100253.16
2023-03-28T23:30:19.424Z,100258.22
2023-03-28T23:32:47.951Z,100238.38
2023-03-28T23:35:16.560Z,100224.66
2023-03-28T23:37:44.920Z,100224.66
2023-03-28T23:40:15.578Z,100212.56
2023-03-28T23:42:45.191Z,100198.84
2023-03-28T23:45:15.725Z,100191.91
2023-03-28T23:47:46.130Z,100198.84
2023-03-28T23:50:14.664Z,100194.50
2023-03-28T23:52:43.496Z,100187.63
2023-03-28T23:55:12.288Z,100187.63
2023-03-28T23:57:41.380Z,100193.69
